M I D A S
Marine Information and Data Acquisition System
Tripno 684 of the Zeeleeuw from 2004-04-19 06:35:39 to 2004-04-19 14:55:05
Back to CruiseResearch ActivitiesStationsMapUnderway DataData graphs

EquipmentUnitsComment
TimeDGPSUTC
LatitudeDGPSDM.mWGS84
LongitudeDGPSDM.mWGS84
HeadingGyrodeg 
SOGDGPSknotsSpeed over ground
COGDGPSdegCourse over ground
DepthEcho soundermeters200 kHz
Missing or incorrect values are displayed as -999
Navigation data collected by the RV Zeeleeuw from 2004-04-19 06:35:39 to 2004-04-19 14:55:05
                                                                                    Next 1000 lines
Time Latitude Longitude Heading SOG COG Depth
2004-04-19 06:35:45 51°13.649 2°55.911 116.7 5.1 293 -999
2004-04-19 06:35:50 51°13.652 2°55.901 114.7 5.1 292 -999
2004-04-19 06:35:55 51°13.654 2°55.89 112.8 5.1 290 -999
2004-04-19 06:36:00 51°13.657 2°55.879 110.8 5.2 289 -999
2004-04-19 06:36:05 51°13.659 2°55.869 108.7 5.2 287 -999
2004-04-19 06:36:10 51°13.661 2°55.857 106.7 5.2 285 -999
2004-04-19 06:36:15 51°13.662 2°55.846 103.9 5.2 283 -999
2004-04-19 06:36:20 51°13.664 2°55.835 101.6 5.2 282 -999
2004-04-19 06:36:25 51°13.664 2°55.823 99.4 5.2 278 -999
2004-04-19 06:36:30 51°13.665 2°55.812 97.2 5.1 278 -999
2004-04-19 06:36:34 51°13.666 2°55.804 95.4 4.7 276 -999
2004-04-19 06:36:40 51°13.667 2°55.793 93.4 4.5 275 -999
2004-04-19 06:36:45 51°13.667 2°55.786 90.8 3.3 273 8.1
2004-04-19 06:36:49 51°13.668 2°55.782 88.3 2.7 275 8.3
2004-04-19 06:36:54 51°13.668 2°55.777 85.5 2.2 272 8.5
2004-04-19 06:36:58 51°13.668 2°55.774 81.5 1.8 273 8.5
2004-04-19 06:37:04 51°13.668 2°55.77 77.7 1.2 274 8.5
2004-04-19 06:37:09 51°13.668 2°55.768 74.5 1 285 8.5
2004-04-19 06:37:14 51°13.668 2°55.767 71.1 0.8 297 8.6
2004-04-19 06:37:18 51°13.669 2°55.766 67.5 0.6 348 8.9
2004-04-19 06:37:24 51°13.67 2°55.767 62.6 1 19 9.1
2004-04-19 06:37:29 51°13.672 2°55.768 56.6 1.3 23 9.3
2004-04-19 06:37:34 51°13.674 2°55.769 49.7 1.6 22 9.6
2004-04-19 06:37:39 51°13.677 2°55.771 42.3 1.9 19 9.8
2004-04-19 06:37:44 51°13.68 2°55.772 34.7 2.2 15 11
2004-04-19 06:37:49 51°13.684 2°55.772 26.8 2.7 4 11.6
2004-04-19 06:37:54 51°13.688 2°55.772 18.6 2.9 359 11.8
2004-04-19 06:37:59 51°13.693 2°55.77 10.3 3.3 353 11.8
2004-04-19 06:38:04 51°13.698 2°55.768 1.9 4.2 342 12.8
2004-04-19 06:38:09 51°13.704 2°55.764 352.5 4.5 337 11.9
2004-04-19 06:38:14 51°13.71 2°55.759 345.2 4.5 330 12
2004-04-19 06:38:18 51°13.714 2°55.754 336.7 4.5 326 11.3
2004-04-19 06:38:24 51°13.72 2°55.747 332.8 4.6 323 10.5
2004-04-19 06:38:29 51°13.725 2°55.741 330.7 4.7 323 8.8
2004-04-19 06:38:34 51°13.731 2°55.735 329.9 4.7 323 8.2
2004-04-19 06:38:39 51°13.736 2°55.728 329.8 5 323 7.7
2004-04-19 06:38:45 51°13.744 2°55.721 329.8 4.1 322 7.9
2004-04-19 06:38:48 51°13.748 2°55.717 329.8 5.2 323 7.8
2004-04-19 06:38:54 51°13.756 2°55.708 330 5.9 323 7.7
2004-04-19 06:38:58 51°13.761 2°55.701 329.8 6.1 322 5.7
2004-04-19 06:39:04 51°13.77 2°55.69 330.1 6.5 324 7.8
2004-04-19 06:39:09 51°13.777 2°55.682 330.8 6.8 326 7.7
2004-04-19 06:39:14 51°13.785 2°55.673 332 6.9 327 -999
2004-04-19 06:39:19 51°13.794 2°55.665 332.9 7.1 328 7.8
2004-04-19 06:39:24 51°13.802 2°55.656 333.8 7.3 330 8.2
2004-04-19 06:39:29 51°13.811 2°55.648 335.2 7.5 331 8.2
2004-04-19 06:39:34 51°13.821 2°55.64 336.5 7.6 332 8.4
2004-04-19 06:39:39 51°13.83 2°55.632 337.4 7.7 333 8.3
2004-04-19 06:39:44 51°13.84 2°55.624 338.2 7.9 334 8.4
2004-04-19 06:39:49 51°13.85 2°55.617 339.5 7.9 334 8
2004-04-19 06:39:54 51°13.86 2°55.609 340.3 8 335 8
2004-04-19 06:39:58 51°13.868 2°55.603 340.4 8.1 335 7.8
2004-04-19 06:40:04 51°13.88 2°55.595 340.8 8.1 335 7.8
2004-04-19 06:40:09 51°13.89 2°55.587 340.9 8.2 335 7.8
2004-04-19 06:40:14 51°13.901 2°55.58 340.9 8.2 335 7.9
2004-04-19 06:40:20 51°13.913 2°55.571 341.1 8.3 335 7.8
2004-04-19 06:40:24 51°13.922 2°55.565 341.6 8.3 335 7.7
2004-04-19 06:40:29 51°13.932 2°55.557 341.9 8.3 336 7.8
2004-04-19 06:40:34 51°13.943 2°55.549 342.1 8.3 336 7.8
2004-04-19 06:40:38 51°13.951 2°55.543 342 8.4 336 8.2
2004-04-19 06:40:44 51°13.964 2°55.535 342.1 8.4 336 8.6
2004-04-19 06:40:49 51°13.975 2°55.527 343 8.4 338 8.5
2004-04-19 06:40:54 51°13.986 2°55.52 343.6 8.5 338 8.4
2004-04-19 06:41:00 51°13.999 2°55.511 343 8.5 337 8.6
2004-04-19 06:41:04 51°14.007 2°55.505 342.4 8.5 337 8.6
2004-04-19 06:41:09 51°14.019 2°55.498 342.3 8.6 337 8.4
2004-04-19 06:41:14 51°14.03 2°55.49 342.6 8.6 337 8.7
2004-04-19 06:41:18 51°14.039 2°55.484 342.2 8.8 336 8.9
2004-04-19 06:41:24 51°14.052 2°55.474 341.5 8.9 335 9.3
2004-04-19 06:41:29 51°14.063 2°55.466 341.4 8.9 335 9.3
2004-04-19 06:41:34 51°14.075 2°55.458 341.4 9 335 9.1
2004-04-19 06:41:38 51°14.084 2°55.451 340.8 8.9 334 8.8
2004-04-19 06:41:45 51°14.099 2°55.439 340.4 9 334 9.2
2004-04-19 06:41:49 51°14.109 2°55.432 340.3 9 333 9.2
2004-04-19 06:41:54 51°14.12 2°55.423 339.8 9.1 333 9.3
2004-04-19 06:41:59 51°14.131 2°55.414 339.3 9.2 333 9.3
2004-04-19 06:42:04 51°14.142 2°55.404 338.6 9.3 332 9.3
2004-04-19 06:42:09 51°14.154 2°55.394 338.1 9.3 331 9.3
2004-04-19 06:42:14 51°14.165 2°55.383 336.8 9.4 330 9.3
2004-04-19 06:42:19 51°14.176 2°55.373 335.8 9.4 329 9.3
2004-04-19 06:42:24 51°14.187 2°55.361 335 9.5 329 -999
2004-04-19 06:42:29 51°14.199 2°55.349 333.8 9.7 326 9.3
2004-04-19 06:42:34 51°14.21 2°55.337 332.4 9.8 325 9.2
2004-04-19 06:42:39 51°14.221 2°55.324 331 9.9 324 9.2
2004-04-19 06:42:44 51°14.232 2°55.31 329.5 10 321 9.2
2004-04-19 06:42:49 51°14.242 2°55.296 327.6 10 319 9.2
2004-04-19 06:42:54 51°14.252 2°55.28 324.9 10.1 317 9.1
2004-04-19 06:43:00 51°14.264 2°55.261 322.2 10.1 315 9.2
2004-04-19 06:43:04 51°14.272 2°55.248 320.2 10.2 314 9.2
2004-04-19 06:43:09 51°14.281 2°55.23 318.7 10.5 312 9.2
2004-04-19 06:43:14 51°14.291 2°55.212 317.7 10.6 311 9.2
2004-04-19 06:43:18 51°14.298 2°55.197 316.4 10.7 310 9.2
2004-04-19 06:43:24 51°14.309 2°55.174 314.7 10.8 307 9.3
2004-04-19 06:43:29 51°14.318 2°55.155 313.6 10.9 307 9.3
2004-04-19 06:43:34 51°14.327 2°55.135 312.4 11 306 9.3
2004-04-19 06:43:39 51°14.336 2°55.115 311.5 11.1 305 8.9
2004-04-19 06:43:44 51°14.345 2°55.095 311.4 11.1 306 8.9
2004-04-19 06:43:49 51°14.353 2°55.074 310.8 11.4 304 8.9
2004-04-19 06:43:54 51°14.362 2°55.052 309.8 11.6 303 9
2004-04-19 06:44:00 51°14.373 2°55.025 308.7 11.8 302 9
2004-04-19 06:44:04 51°14.38 2°55.006 308.1 12 302 8.9
2004-04-19 06:44:09 51°14.389 2°54.983 308.1 12.6 301 8.7
2004-04-19 06:44:14 51°14.397 2°54.958 307.4 12.8 299 8.7
2004-04-19 06:44:19 51°14.406 2°54.932 306.3 13 297 8.8
2004-04-19 06:44:24 51°14.413 2°54.905 304.1 13.2 293 8.7
2004-04-19 06:44:29 51°14.42 2°54.878 301.4 13.4 291 8.7
2004-04-19 06:44:34 51°14.425 2°54.849 298.7 13.5 288 8.7
2004-04-19 06:44:38 51°14.429 2°54.826 295.5 13.6 286 8.6
2004-04-19 06:44:44 51°14.433 2°54.79 291.8 13.7 281 8.5
2004-04-19 06:44:49 51°14.436 2°54.76 287.1 13.8 276 8.5
2004-04-19 06:44:54 51°14.436 2°54.729 283.1 13.9 273 8.5
2004-04-19 06:45:00 51°14.435 2°54.693 278.7 13.9 270 8.5
2004-04-19 06:45:04 51°14.434 2°54.668 274.3 14 264 8.5
2004-04-19 06:45:08 51°14.431 2°54.644 270.7 14 261 8.4
2004-04-19 06:45:13 51°14.427 2°54.613 267 14.1 259 8.4
2004-04-19 06:45:19 51°14.423 2°54.576 264.8 14.1 258 8.5
2004-04-19 06:45:24 51°14.418 2°54.546 263.6 14.2 256 8.4
2004-04-19 06:45:29 51°14.412 2°54.516 261.8 14.2 252 8.3
2004-04-19 06:45:34 51°14.406 2°54.486 258.6 14.2 251 8.1
2004-04-19 06:45:39 51°14.399 2°54.457 255.8 14.2 249 7.8
2004-04-19 06:45:44 51°14.391 2°54.429 253.6 14.1 248 7.7
2004-04-19 06:45:49 51°14.383 2°54.4 252.4 14 246 7.5
2004-04-19 06:45:54 51°14.375 2°54.372 251.1 14 246 5.6
2004-04-19 06:45:59 51°14.367 2°54.344 250.6 13.9 246 7.5
2004-04-19 06:46:04 51°14.359 2°54.316 250 13.9 244 7.3
2004-04-19 06:46:09 51°14.351 2°54.289 249 13.9 244 7.2
2004-04-19 06:46:14 51°14.342 2°54.261 248.2 13.9 243 7.2
2004-04-19 06:46:18 51°14.335 2°54.24 247.7 13.9 243 7.2
2004-04-19 06:46:24 51°14.324 2°54.207 247.5 13.9 242 7.2
2004-04-19 06:46:29 51°14.315 2°54.18 247 13.9 242 7.1
2004-04-19 06:46:34 51°14.306 2°54.153 246.6 13.9 242 7.1
2004-04-19 06:46:40 51°14.295 2°54.12 246.5 13.8 242 7.2
2004-04-19 06:46:44 51°14.288 2°54.099 246.6 13.8 242 7.1
2004-04-19 06:46:49 51°14.279 2°54.072 246.3 13.9 242 7.1
2004-04-19 06:46:54 51°14.27 2°54.044 246.6 13.9 242 7.1
2004-04-19 06:46:59 51°14.261 2°54.017 246.9 13.9 243 7
2004-04-19 06:47:04 51°14.253 2°53.989 247.5 13.9 244 7.1
2004-04-19 06:47:09 51°14.244 2°53.962 248.2 13.9 244 7.1
2004-04-19 06:47:14 51°14.236 2°53.934 248.8 13.9 245 7.1
2004-04-19 06:47:18 51°14.229 2°53.911 249.8 13.9 246 7.1
2004-04-19 06:47:24 51°14.22 2°53.878 250.4 13.9 246 7.1
2004-04-19 06:47:29 51°14.212 2°53.85 250.9 13.9 246 7.2
2004-04-19 06:47:34 51°14.204 2°53.822 250.8 13.9 246 5.3
2004-04-19 06:47:39 51°14.196 2°53.793 250.8 14 246 7.2
2004-04-19 06:47:44 51°14.188 2°53.766 250.5 14 245 7.2
2004-04-19 06:47:49 51°14.18 2°53.738 250.2 14 244 7.2
2004-04-19 06:47:54 51°14.171 2°53.71 249.5 14.1 244 5.5
2004-04-19 06:47:59 51°14.162 2°53.682 249 14.1 244 7.4
2004-04-19 06:48:04 51°14.154 2°53.654 248.6 14.1 244 7.3
2004-04-19 06:48:09 51°14.145 2°53.626 248.3 14.2 244 7.3
2004-04-19 06:48:14 51°14.136 2°53.598 248.4 14.2 244 7.4
2004-04-19 06:48:20 51°14.126 2°53.564 248.9 14.2 245 7.4
2004-04-19 06:48:24 51°14.12 2°53.541 249.4 14.2 245 7.4
2004-04-19 06:48:29 51°14.112 2°53.512 250 14.2 246 7.5
2004-04-19 06:48:34 51°14.104 2°53.483 250.9 14.3 246 7.5
2004-04-19 06:48:39 51°14.096 2°53.454 251.5 14.3 247 7.5
2004-04-19 06:48:44 51°14.088 2°53.425 252.1 14.3 247 5.6
2004-04-19 06:48:49 51°14.08 2°53.396 252.7 14.3 247 7.6
2004-04-19 06:48:54 51°14.072 2°53.367 252.9 14.3 247 7.5
2004-04-19 06:48:58 51°14.065 2°53.344 251.4 14.4 244 7.6
2004-04-19 06:49:04 51°14.054 2°53.31 248.7 14.4 241 7.6
2004-04-19 06:49:09 51°14.043 2°53.283 246.4 14.4 239 7.6
2004-04-19 06:49:14 51°14.032 2°53.256 243.8 14.5 238 7.7
2004-04-19 06:49:19 51°14.021 2°53.23 241.9 14.5 236 5.7
2004-04-19 06:49:24 51°14.01 2°53.203 240.3 14.5 236 7.7
2004-04-19 06:49:29 51°13.998 2°53.177 239.5 14.5 235 7.8
2004-04-19 06:49:34 51°13.987 2°53.151 238.9 14.5 235 7.8
2004-04-19 06:49:39 51°13.976 2°53.124 239 14.5 236 7.8
2004-04-19 06:49:44 51°13.965 2°53.097 239.6 14.6 238 7.9
2004-04-19 06:49:49 51°13.955 2°53.069 241.6 14.6 240 7.9
2004-04-19 06:49:54 51°13.946 2°53.04 244.2 14.6 243 7.9
2004-04-19 06:49:58 51°13.939 2°53.016 247.9 14.6 246 7.9
2004-04-19 06:50:04 51°13.93 2°52.98 251.2 14.6 249 8
2004-04-19 06:50:09 51°13.923 2°52.95 254 14.5 251 8
2004-04-19 06:50:14 51°13.917 2°52.92 256.2 14.5 251 8.1
2004-04-19 06:50:20 51°13.909 2°52.884 256.8 14.5 251 8.2
2004-04-19 06:50:24 51°13.903 2°52.859 256.8 14.5 250 8.2
2004-04-19 06:50:29 51°13.896 2°52.83 255.7 14.6 248 8.2
2004-04-19 06:50:34 51°13.888 2°52.8 253.3 14.7 246 8.3
2004-04-19 06:50:38 51°13.88 2°52.777 250 14.7 243 8.2
2004-04-19 06:50:44 51°13.868 2°52.743 247.5 14.8 242 8.2
2004-04-19 06:50:49 51°13.858 2°52.715 245.5 14.7 240 8.3
2004-04-19 06:50:54 51°13.847 2°52.687 244.1 14.7 239 8.3
2004-04-19 06:50:59 51°13.836 2°52.659 243.1 14.6 239 8.4
2004-04-19 06:51:04 51°13.826 2°52.632 242.6 14.7 238 8.4
2004-04-19 06:51:09 51°13.815 2°52.604 243 14.7 240 8.3
2004-04-19 06:51:13 51°13.808 2°52.581 243.9 14.7 241 8.3
2004-04-19 06:51:19 51°13.796 2°52.546 245.2 14.8 242 8.4
2004-04-19 06:51:24 51°13.788 2°52.516 247.4 14.8 245 8.4
2004-04-19 06:51:29 51°13.779 2°52.487 248.9 14.8 246 8.4
2004-04-19 06:51:34 51°13.771 2°52.457 250.7 14.8 247 8.4
2004-04-19 06:51:39 51°13.763 2°52.427 251.8 14.7 247 8.4
2004-04-19 06:51:44 51°13.755 2°52.396 252.3 14.8 247 8.5
2004-04-19 06:51:49 51°13.747 2°52.367 252.4 14.8 246 8.5
2004-04-19 06:51:54 51°13.738 2°52.337 251.2 14.8 245 8.5
2004-04-19 06:51:59 51°13.728 2°52.308 249.5 14.8 243 8.5
2004-04-19 06:52:04 51°13.719 2°52.279 247.6 14.9 241 8.5
2004-04-19 06:52:09 51°13.709 2°52.25 246.3 14.9 241 8.5
2004-04-19 06:52:14 51°13.698 2°52.222 245.2 14.9 240 8.6
2004-04-19 06:52:18 51°13.69 2°52.199 244.8 14.9 240 8.5
2004-04-19 06:52:24 51°13.678 2°52.165 244.3 14.9 240 8.6
2004-04-19 06:52:29 51°13.667 2°52.136 243.8 14.9 240 8.6
2004-04-19 06:52:34 51°13.657 2°52.108 243.8 14.9 240 8.6
2004-04-19 06:52:39 51°13.647 2°52.079 244.1 14.9 240 8.7
2004-04-19 06:52:44 51°13.637 2°52.05 245 14.9 241 8.6
2004-04-19 06:52:49 51°13.628 2°52.021 245.8 15 243 8.6
2004-04-19 06:52:54 51°13.618 2°51.991 247.2 14.9 243 8.6
2004-04-19 06:53:00 51°13.608 2°51.956 248.3 14.9 244 8.7
2004-04-19 06:53:04 51°13.601 2°51.932 249.3 14.9 245 8.6
2004-04-19 06:53:09 51°13.592 2°51.902 249.8 14.9 245 8.6
2004-04-19 06:53:14 51°13.583 2°51.872 249.8 14.9 244 8.6
2004-04-19 06:53:18 51°13.575 2°51.849 249 15 243 8.6
2004-04-19 06:53:24 51°13.563 2°51.813 247.8 15 242 8.6
2004-04-19 06:53:29 51°13.553 2°51.784 246.7 15 241 8.6
2004-04-19 06:53:34 51°13.543 2°51.755 246 15 241 8.7
2004-04-19 06:53:40 51°13.531 2°51.721 245.3 15 240 8.7
2004-04-19 06:53:44 51°13.523 2°51.698 244.9 15 240 8.8
2004-04-19 06:53:48 51°13.514 2°51.675 244.4 15 240 8.6
2004-04-19 06:53:54 51°13.502 2°51.64 244.3 15 240 8.7
2004-04-19 06:53:59 51°13.492 2°51.611 244.5 15 241 8.8
2004-04-19 06:54:04 51°13.482 2°51.582 245.3 15.1 242 8.8
2004-04-19 06:54:09 51°13.472 2°51.552 246 15.1 242 8.8
2004-04-19 06:54:14 51°13.463 2°51.523 247 15.1 243 8.9
2004-04-19 06:54:20 51°13.452 2°51.487 247.7 15.1 243 8.9
2004-04-19 06:54:24 51°13.444 2°51.463 248.3 15.1 244 9
2004-04-19 06:54:29 51°13.435 2°51.433 248.6 15.1 243 8.9
2004-04-19 06:54:34 51°13.425 2°51.404 248.2 15.1 242 8.9
2004-04-19 06:54:38 51°13.417 2°51.38 247.4 15.1 242 8.9
2004-04-19 06:54:44 51°13.405 2°51.345 246.3 15.1 241 8.9
2004-04-19 06:54:48 51°13.397 2°51.322 245.5 15.1 240 8.9
2004-04-19 06:54:54 51°13.384 2°51.288 244.9 15.1 240 9
2004-04-19 06:54:59 51°13.374 2°51.259 244.5 15.1 240 9
2004-04-19 06:55:04 51°13.363 2°51.23 244.4 15.1 241 9
2004-04-19 06:55:09 51°13.353 2°51.201 244.7 15.1 241 8.9
2004-04-19 06:55:14 51°13.344 2°51.171 245.5 15.1 242 9
2004-04-19 06:55:19 51°13.334 2°51.141 246.4 15.1 242 9
2004-04-19 06:55:24 51°13.324 2°51.112 246.7 15.2 242 9
2004-04-19 06:55:29 51°13.314 2°51.082 246.9 15.1 242 9.1
2004-04-19 06:55:34 51°13.305 2°51.053 246.9 15.1 242 9.1
2004-04-19 06:55:38 51°13.296 2°51.029 246.3 15.1 242 9.1
2004-04-19 06:55:44 51°13.284 2°50.994 246 15.2 241 9
2004-04-19 06:55:49 51°13.274 2°50.964 245.5 15.2 241 9.1
2004-04-19 06:55:54 51°13.264 2°50.935 245.4 15.2 241 9.1
2004-04-19 06:55:58 51°13.256 2°50.912 244.9 15.2 241 9.1
2004-04-19 06:56:04 51°13.244 2°50.877 244.7 15.2 241 9.1
2004-04-19 06:56:09 51°13.233 2°50.847 244.9 15.2 241 9.1
2004-04-19 06:56:14 51°13.224 2°50.818 245.3 15.1 242 9
2004-04-19 06:56:19 51°13.214 2°50.789 245.8 15.1 241 9.1
2004-04-19 06:56:24 51°13.204 2°50.759 245.5 15.1 241 9.1
2004-04-19 06:56:29 51°13.193 2°50.73 245.3 15.1 240 9.1
2004-04-19 06:56:34 51°13.183 2°50.701 244.5 15.1 240 9.1
2004-04-19 06:56:40 51°13.17 2°50.667 243.9 15.1 240 9.1
2004-04-19 06:56:44 51°13.162 2°50.643 243.8 15.1 240 9.1
2004-04-19 06:56:49 51°13.151 2°50.615 243.5 15.1 240 9.1
2004-04-19 06:56:54 51°13.141 2°50.586 243.4 15.1 240 9.1
2004-04-19 06:56:59 51°13.13 2°50.557 243.6 15 240 9.2
2004-04-19 06:57:04 51°13.12 2°50.528 243.6 15.1 240 9.2
2004-04-19 06:57:09 51°13.109 2°50.499 243.8 15 240 9.2
2004-04-19 06:57:14 51°13.099 2°50.471 243.8 15 240 9.2
2004-04-19 06:57:18 51°13.091 2°50.448 243.8 15 240 9.2
2004-04-19 06:57:24 51°13.078 2°50.413 243.8 15 240 9.3
2004-04-19 06:57:29 51°13.067 2°50.385 243.6 15 239 9.2
2004-04-19 06:57:34 51°13.057 2°50.356 243.3 15.1 240 9.2
2004-04-19 06:57:39 51°13.046 2°50.327 243.4 15 240 9.3
2004-04-19 06:57:44 51°13.036 2°50.299 243.4 15.1 240 9.3
2004-04-19 06:57:49 51°13.025 2°50.27 243.5 15.1 240 9.2
2004-04-19 06:57:54 51°13.015 2°50.241 243.8 15.1 240 9.3
2004-04-19 06:57:58 51°13.006 2°50.218 244.3 15.1 240 9.3
2004-04-19 06:58:04 51°12.994 2°50.183 244.4 15.1 240 9.3
2004-04-19 06:58:09 51°12.984 2°50.154 244.4 15.1 240 9.3
2004-04-19 06:58:13 51°12.975 2°50.131 244.4 15.1 240 9.4
2004-04-19 06:58:18 51°12.965 2°50.102 244.1 15.1 240 9.4
2004-04-19 06:58:24 51°12.952 2°50.067 243.9 15.1 240 9.4
2004-04-19 06:58:29 51°12.942 2°50.039 243.8 15.1 240 9.4
2004-04-19 06:58:34 51°12.931 2°50.01 243.8 15.1 240 9.4
2004-04-19 06:58:38 51°12.923 2°49.986 244 15.1 240 9.4
2004-04-19 06:58:44 51°12.911 2°49.952 244 15.1 241 9.5
2004-04-19 06:58:49 51°12.9 2°49.923 244.2 15.1 240 9.4
2004-04-19 06:58:54 51°12.89 2°49.893 244.2 15.1 241 9.4
2004-04-19 06:58:58 51°12.882 2°49.87 244.2 15.1 240 9.4
2004-04-19 06:59:04 51°12.869 2°49.835 244.4 15.1 241 9.4
2004-04-19 06:59:09 51°12.859 2°49.806 244.7 15.1 241 9.5
2004-04-19 06:59:14 51°12.849 2°49.777 244.9 15.1 241 9.5
2004-04-19 06:59:19 51°12.839 2°49.747 244.9 15.2 241 9.5
2004-04-19 06:59:24 51°12.828 2°49.718 244.7 15.1 241 9.5
2004-04-19 06:59:28 51°12.82 2°49.695 244.4 15.1 240 9.5
2004-04-19 06:59:34 51°12.807 2°49.66 243.9 15.2 240 9.6
2004-04-19 06:59:40 51°12.795 2°49.625 243.9 15.2 241 9.6
2004-04-19 06:59:44 51°12.787 2°49.602 244.4 15.2 241 9.6
2004-04-19 06:59:49 51°12.777 2°49.573 244.5 15.1 241 9.6
2004-04-19 06:59:54 51°12.766 2°49.543 244.5 15.2 241 9.6
2004-04-19 06:59:59 51°12.756 2°49.514 244.5 15.1 241 9.6
2004-04-19 07:00:04 51°12.746 2°49.485 244.5 15.2 240 9.6
2004-04-19 07:00:09 51°12.735 2°49.456 244.1 15.2 241 9.6
2004-04-19 07:00:14 51°12.724 2°49.427 243.9 15.2 240 9.7
2004-04-19 07:00:18 51°12.716 2°49.404 243.7 15.2 240 9.6
2004-04-19 07:00:24 51°12.704 2°49.369 243.8 15.2 240 9.6
2004-04-19 07:00:29 51°12.693 2°49.34 243.8 15.2 240 9.6
2004-04-19 07:00:34 51°12.683 2°49.311 244.3 15.2 240 9.7
2004-04-19 07:00:39 51°12.672 2°49.282 244.3 15.2 240 9.7
2004-04-19 07:00:44 51°12.662 2°49.252 244.2 15.2 241 9.7
2004-04-19 07:00:49 51°12.652 2°49.223 244.4 15.2 241 9.7
2004-04-19 07:00:54 51°12.641 2°49.194 244.4 15.2 241 9.7
2004-04-19 07:00:58 51°12.633 2°49.17 244.7 15.2 241 9.7
2004-04-19 07:01:04 51°12.621 2°49.135 244.9 15.2 241 9.8
2004-04-19 07:01:09 51°12.61 2°49.106 244.5 15.2 240 9.7
2004-04-19 07:01:14 51°12.6 2°49.077 244 15.2 240 9.7
2004-04-19 07:01:20 51°12.588 2°49.042 243.9 15.2 240 9.8
2004-04-19 07:01:24 51°12.579 2°49.019 244 15.2 241 9.8
2004-04-19 07:01:29 51°12.569 2°48.989 244.4 15.2 241 9.9
2004-04-19 07:01:34 51°12.559 2°48.96 244.5 15.2 241 9.8
2004-04-19 07:01:38 51°12.55 2°48.937 244.5 15.2 241 9.9
2004-04-19 07:01:44 51°12.538 2°48.901 244.5 15.2 241 9.8
2004-04-19 07:01:49 51°12.528 2°48.872 244.5 15.2 240 9.9
2004-04-19 07:01:54 51°12.517 2°48.843 244.4 15.2 241 9.8
2004-04-19 07:01:58 51°12.509 2°48.82 244.2 15.2 240 9.9
2004-04-19 07:02:04 51°12.496 2°48.785 243.9 15.2 240 9.9
2004-04-19 07:02:09 51°12.486 2°48.756 243.9 15.2 241 9.9
2004-04-19 07:02:14 51°12.476 2°48.726 244.2 15.2 240 9.9
2004-04-19 07:02:18 51°12.467 2°48.703 243.9 15.2 241 9.9
2004-04-19 07:02:24 51°12.455 2°48.668 244.1 15.2 241 10
2004-04-19 07:02:29 51°12.445 2°48.638 244.4 15.2 241 9.9
2004-04-19 07:02:34 51°12.434 2°48.609 244.5 15.2 241 9.9
2004-04-19 07:02:39 51°12.424 2°48.58 244.5 15.2 240 9.9
2004-04-19 07:02:44 51°12.414 2°48.551 244.5 15.2 241 9.9
2004-04-19 07:02:49 51°12.403 2°48.522 244.3 15.2 240 10
2004-04-19 07:02:54 51°12.393 2°48.492 243.8 15.2 240 10
2004-04-19 07:02:58 51°12.384 2°48.469 243.8 15.2 241 10
2004-04-19 07:03:04 51°12.372 2°48.434 244.2 15.2 241 10
2004-04-19 07:03:09 51°12.361 2°48.405 244.4 15.2 241 10
2004-04-19 07:03:14 51°12.351 2°48.375 244.4 15.2 241 10
2004-04-19 07:03:18 51°12.343 2°48.352 244.4 15.2 241 10
2004-04-19 07:03:24 51°12.331 2°48.317 244.6 15.2 241 10
2004-04-19 07:03:29 51°12.32 2°48.288 244.5 15.2 240 10
2004-04-19 07:03:34 51°12.31 2°48.258 244.2 15.2 241 10
2004-04-19 07:03:40 51°12.297 2°48.223 244.1 15.2 241 10.1
2004-04-19 07:03:44 51°12.289 2°48.2 244.5 15.2 241 10
2004-04-19 07:03:49 51°12.279 2°48.171 244.8 15.2 241 10
2004-04-19 07:03:54 51°12.269 2°48.141 244.8 15.2 241 10.1
2004-04-19 07:03:58 51°12.261 2°48.118 244.5 15.2 241 10.1
2004-04-19 07:04:04 51°12.248 2°48.083 244.2 15.2 241 10.1
2004-04-19 07:04:09 51°12.238 2°48.054 244.2 15.2 241 10.1
2004-04-19 07:04:14 51°12.228 2°48.024 244.3 15.2 241 10.2
2004-04-19 07:04:18 51°12.219 2°48.001 244.6 15.2 241 10.1
2004-04-19 07:04:24 51°12.207 2°47.966 244.7 15.2 241 10.1
2004-04-19 07:04:29 51°12.197 2°47.936 244.5 15.2 241 10.2
2004-04-19 07:04:34 51°12.186 2°47.907 244.1 15.2 240 10.1
2004-04-19 07:04:40 51°12.174 2°47.872 244.1 15.2 241 10.2
2004-04-19 07:04:44 51°12.166 2°47.849 244.4 15.2 242 10.2
2004-04-19 07:04:49 51°12.156 2°47.819 244.7 15.2 241 10.1
2004-04-19 07:04:54 51°12.145 2°47.79 244.6 15.2 241 10.2
2004-04-19 07:05:00 51°12.133 2°47.755 244.3 15.2 241 10.1
2004-04-19 07:05:04 51°12.125 2°47.732 244.2 15.2 241 10.2
2004-04-19 07:05:09 51°12.115 2°47.703 244.3 15.2 241 10.1
2004-04-19 07:05:14 51°12.105 2°47.673 244.4 15.2 241 10.1
2004-04-19 07:05:20 51°12.092 2°47.638 244.6 15.2 241 10.2
2004-04-19 07:05:24 51°12.084 2°47.615 244.7 15.2 241 10.1
2004-04-19 07:05:29 51°12.074 2°47.585 244.6 15.2 241 10.2
2004-04-19 07:05:34 51°12.064 2°47.556 244.6 15.2 241 10.1
2004-04-19 07:05:39 51°12.054 2°47.527 244.4 15.2 241 10.1
2004-04-19 07:05:44 51°12.043 2°47.498 244 15.2 240 10.1
2004-04-19 07:05:49 51°12.033 2°47.469 243.9 15.2 241 10.1
2004-04-19 07:05:54 51°12.023 2°47.439 244.4 15.2 241 10.2
2004-04-19 07:06:00 51°12.011 2°47.404 244.4 15.2 241 10.1
2004-04-19 07:06:04 51°12.003 2°47.381 244.5 15.2 242 10.1
2004-04-19 07:06:09 51°11.992 2°47.351 244.9 15.2 241 10.1
2004-04-19 07:06:14 51°11.982 2°47.322 244.7 15.2 242 10.1
2004-04-19 07:06:20 51°11.971 2°47.286 245 15.2 242 10
2004-04-19 07:06:24 51°11.964 2°47.262 246.2 15.2 244 10.1
2004-04-19 07:06:29 51°11.955 2°47.232 247.7 15.2 245 10.1
2004-04-19 07:06:34 51°11.946 2°47.201 249 15.2 246 10.1
2004-04-19 07:06:38 51°11.939 2°47.177 249.9 15.2 246 10.1
2004-04-19 07:06:44 51°11.929 2°47.14 250.2 15.2 246 10.1
2004-04-19 07:06:49 51°11.921 2°47.109 250.3 15.2 246 10
2004-04-19 07:06:54 51°11.912 2°47.079 249.9 15.2 245 10.1
2004-04-19 07:07:00 51°11.902 2°47.042 249.6 15.2 246 10.1
2004-04-19 07:07:05 51°11.893 2°47.011 249.5 15.2 246 10.1
2004-04-19 07:07:09 51°11.886 2°46.987 249.6 15.2 246 10.1
2004-04-19 07:07:14 51°11.878 2°46.956 249.7 15.2 246 10.2
2004-04-19 07:07:19 51°11.869 2°46.925 249.8 15.2 246 10.1
2004-04-19 07:07:24 51°11.861 2°46.895 249.8 15.2 246 10.2
2004-04-19 07:07:29 51°11.852 2°46.864 249.5 15.2 246 10.2
2004-04-19 07:07:34 51°11.843 2°46.833 249.4 15.2 246 10.2
2004-04-19 07:07:38 51°11.836 2°46.809 249.5 15.2 246 10.2
2004-04-19 07:07:44 51°11.826 2°46.772 249.6 15.2 246 10.2
2004-04-19 07:07:49 51°11.818 2°46.741 249.6 15.2 246 10.3
2004-04-19 07:07:54 51°11.809 2°46.711 249.6 15.2 246 10.2
2004-04-19 07:07:58 51°11.802 2°46.686 249.5 15.2 246 10.2
2004-04-19 07:08:04 51°11.792 2°46.649 249.3 15.2 246 10.3
2004-04-19 07:08:08 51°11.785 2°46.625 249.4 15.2 246 10.3
2004-04-19 07:08:14 51°11.774 2°46.588 249.5 15.2 246 10.3
2004-04-19 07:08:18 51°11.768 2°46.563 249.6 15.2 246 10.4
2004-04-19 07:08:24 51°11.757 2°46.527 249.3 15.3 245 10.3
2004-04-19 07:08:29 51°11.748 2°46.496 249 15.2 246 10.4
2004-04-19 07:08:34 51°11.741 2°46.464 249.8 15.2 248 10.4
2004-04-19 07:08:38 51°11.735 2°46.439 252.6 15.2 250 10.4
2004-04-19 07:08:44 51°11.728 2°46.4 255.3 15.2 254 10.4
2004-04-19 07:08:49 51°11.723 2°46.368 258.1 15.2 256 10.4
2004-04-19 07:08:54 51°11.718 2°46.335 260.2 15.1 257 10.4
2004-04-19 07:08:58 51°11.715 2°46.309 262.6 15.1 260 10.5
2004-04-19 07:09:04 51°11.711 2°46.269 264.9 15.2 261 10.6
2004-04-19 07:09:09 51°11.707 2°46.236 266 15.2 261 10.6
2004-04-19 07:09:14 51°11.704 2°46.203 266.8 15.2 261 10.6
2004-04-19 07:09:20 51°11.7 2°46.163 266.7 15.2 261 10.6
2004-04-19 07:09:24 51°11.697 2°46.137 265.7 15.2 259 10.6
2004-04-19 07:09:29 51°11.693 2°46.104 264.9 15.3 259 10.6
2004-04-19 07:09:34 51°11.689 2°46.071 264.2 15.2 259 10.6
2004-04-19 07:09:40 51°11.683 2°46.031 263.4 15.2 258 10.6
2004-04-19 07:09:44 51°11.68 2°46.005 263 15.3 258 10.6
2004-04-19 07:09:49 51°11.675 2°45.972 262.1 15.3 257 10.6
2004-04-19 07:09:54 51°11.67 2°45.939 261.7 15.3 257 10.7
2004-04-19 07:09:58 51°11.666 2°45.913 261.1 15.3 256 10.7
2004-04-19 07:10:04 51°11.66 2°45.874 260.7 15.3 256 10.7
2004-04-19 07:10:09 51°11.655 2°45.842 260.5 15.3 256 10.7
2004-04-19 07:10:14 51°11.65 2°45.809 260.9 15.3 257 10.7
2004-04-19 07:10:19 51°11.645 2°45.776 261.4 15.3 257 10.7
2004-04-19 07:10:24 51°11.64 2°45.743 261.7 15.3 257 10.7
2004-04-19 07:10:29 51°11.636 2°45.71 262 15.3 257 10.8
2004-04-19 07:10:34 51°11.631 2°45.676 262.1 15.3 257 10.7
2004-04-19 07:10:40 51°11.626 2°45.636 262.1 15.3 257 10.7
2004-04-19 07:10:44 51°11.622 2°45.61 262 15.3 257 10.8
2004-04-19 07:10:49 51°11.617 2°45.577 261.7 15.3 257 10.7
2004-04-19 07:10:54 51°11.612 2°45.544 261.5 15.3 257 10.7
2004-04-19 07:10:58 51°11.609 2°45.518 261.3 15.3 257 10.8
2004-04-19 07:11:04 51°11.603 2°45.478 261.7 15.3 257 10.7
2004-04-19 07:11:09 51°11.598 2°45.445 262 15.3 257 10.8
2004-04-19 07:11:14 51°11.593 2°45.412 261.9 15.3 257 10.7
2004-04-19 07:11:18 51°11.59 2°45.386 261.7 15.3 257 10.7
2004-04-19 07:11:24 51°11.584 2°45.346 261.7 15.3 257 10.7
2004-04-19 07:11:29 51°11.58 2°45.313 261.7 15.3 257 10.7
2004-04-19 07:11:34 51°11.575 2°45.28 262 15.3 257 10.7
2004-04-19 07:11:40 51°11.569 2°45.24 262 15.3 257 10.7
2004-04-19 07:11:44 51°11.565 2°45.214 261.5 15.3 257 10.7
2004-04-19 07:11:49 51°11.561 2°45.181 261.2 15.3 257 10.7
2004-04-19 07:11:54 51°11.556 2°45.148 261.2 15.3 257 10.7
2004-04-19 07:12:00 51°11.55 2°45.108 261.6 15.3 257 10.7
2004-04-19 07:12:04 51°11.547 2°45.082 261.8 15.3 257 10.7
2004-04-19 07:12:09 51°11.542 2°45.049 261.7 15.3 257 10.7
2004-04-19 07:12:14 51°11.537 2°45.016 261.6 15.3 257 10.8
2004-04-19 07:12:19 51°11.533 2°44.983 261.4 15.3 257 10.8
2004-04-19 07:12:24 51°11.528 2°44.95 261.3 15.3 257 10.8
2004-04-19 07:12:29 51°11.523 2°44.918 261.2 15.3 257 10.7
2004-04-19 07:12:34 51°11.519 2°44.885 261.4 15.3 257 10.8
2004-04-19 07:12:38 51°11.515 2°44.858 261.5 15.3 257 10.7
2004-04-19 07:12:44 51°11.509 2°44.819 261.3 15.3 257 10.7
2004-04-19 07:12:49 51°11.504 2°44.786 261.2 15.3 257 10.8
2004-04-19 07:12:54 51°11.499 2°44.753 261.1 15.3 257 10.7
2004-04-19 07:13:00 51°11.493 2°44.714 261.1 15.3 257 10.7
2004-04-19 07:13:04 51°11.49 2°44.688 261.1 15.2 257 10.6
2004-04-19 07:13:08 51°11.486 2°44.661 261.2 15.3 257 10.7
2004-04-19 07:13:14 51°11.48 2°44.622 261.3 15.3 257 10.8
2004-04-19 07:13:19 51°11.475 2°44.589 261.6 15.3 257 10.7
2004-04-19 07:13:24 51°11.471 2°44.556 261.7 15.2 257 10.7
2004-04-19 07:13:29 51°11.466 2°44.524 261.5 15.3 257 10.7
2004-04-19 07:13:34 51°11.461 2°44.491 261.3 15.3 257 10.7
2004-04-19 07:13:38 51°11.458 2°44.465 261.5 15.3 257 10.7
2004-04-19 07:13:44 51°11.452 2°44.425 261.8 15.2 257 10.8
2004-04-19 07:13:49 51°11.448 2°44.392 261.8 15.2 257 10.7
2004-04-19 07:13:54 51°11.443 2°44.36 261.6 15.2 257 10.7
2004-04-19 07:14:00 51°11.437 2°44.32 261.6 15.2 257 10.7
2004-04-19 07:14:04 51°11.433 2°44.294 261.3 15.2 257 10.7
2004-04-19 07:14:09 51°11.428 2°44.262 260.9 15.2 257 10.7
2004-04-19 07:14:14 51°11.424 2°44.229 260.9 15.2 257 10.7
2004-04-19 07:14:19 51°11.419 2°44.196 261.2 15.2 257 10.7
2004-04-19 07:14:24 51°11.414 2°44.164 261.3 15.2 257 10.7
2004-04-19 07:14:29 51°11.409 2°44.131 261.2 15.2 257 10.7
2004-04-19 07:14:34 51°11.404 2°44.099 261.2 15.2 257 10.7
2004-04-19 07:14:38 51°11.4 2°44.073 261.2 15.2 257 10.7
2004-04-19 07:14:44 51°11.395 2°44.034 261 15.2 257 10.7
2004-04-19 07:14:49 51°11.39 2°44.001 260.9 15.2 257 10.7
2004-04-19 07:14:54 51°11.385 2°43.968 260.9 15.2 257 10.7
2004-04-19 07:14:58 51°11.382 2°43.942 261.2 15.2 257 10.7
2004-04-19 07:15:04 51°11.376 2°43.903 261.6 15.1 258 10.7
2004-04-19 07:15:08 51°11.372 2°43.877 261.7 15.1 257 10.7
2004-04-19 07:15:14 51°11.367 2°43.838 261.5 15.2 257 10.7
2004-04-19 07:15:20 51°11.361 2°43.799 261.2 15.2 257 10.7
2004-04-19 07:15:24 51°11.357 2°43.773 260.9 15.2 257 10.8
2004-04-19 07:15:29 51°11.353 2°43.74 261 15.1 257 10.7
2004-04-19 07:15:34 51°11.348 2°43.708 261.1 15.1 257 10.7
2004-04-19 07:15:38 51°11.344 2°43.682 261.2 15.1 257 10.7
2004-04-19 07:15:44 51°11.339 2°43.643 261.3 15.1 257 10.7
2004-04-19 07:15:48 51°11.335 2°43.617 261.3 15.1 258 10.8
2004-04-19 07:15:54 51°11.33 2°43.578 261.3 15.1 258 10.7
2004-04-19 07:15:58 51°11.326 2°43.552 261.4 15.1 258 10.7
2004-04-19 07:16:04 51°11.321 2°43.513 261.6 15.1 258 10.7
2004-04-19 07:16:09 51°11.316 2°43.48 261.8 15 258 10.7
2004-04-19 07:16:14 51°11.311 2°43.448 261.3 15.1 257 10.7
2004-04-19 07:16:19 51°11.307 2°43.415 261.2 15.1 257 10.7
2004-04-19 07:16:24 51°11.302 2°43.383 261.2 15.1 258 10.7
2004-04-19 07:16:29 51°11.298 2°43.35 261.2 15.1 257 10.7
2004-04-19 07:16:34 51°11.293 2°43.318 261.4 15.1 258 10.7
2004-04-19 07:16:38 51°11.29 2°43.292 261.6 15.1 258 10.6
2004-04-19 07:16:44 51°11.284 2°43.253 261.4 15 258 10.7
2004-04-19 07:16:49 51°11.28 2°43.221 261.4 15 257 10.7
2004-04-19 07:16:54 51°11.275 2°43.188 261.4 15 257 10.7
2004-04-19 07:16:58 51°11.271 2°43.162 261.4 15.1 258 10.7
2004-04-19 07:17:04 51°11.266 2°43.124 261.4 15 257 10.7
2004-04-19 07:17:08 51°11.262 2°43.098 261.6 15 258 10.6
2004-04-19 07:17:14 51°11.257 2°43.059 261.5 15 258 10.6
2004-04-19 07:17:18 51°11.253 2°43.033 261.5 15 258 10.6
2004-04-19 07:17:24 51°11.248 2°42.994 261.4 15 258 10.6
2004-04-19 07:17:29 51°11.244 2°42.962 261.4 15 258 10.6
2004-04-19 07:17:34 51°11.239 2°42.93 261.6 15 258 10.6
2004-04-19 07:17:40 51°11.234 2°42.891 261.6 14.9 258 10.6
2004-04-19 07:17:44 51°11.23 2°42.866 261.6 14.9 257 10.6
2004-04-19 07:17:49 51°11.226 2°42.834 261.1 14.9 257 10.5
2004-04-19 07:17:54 51°11.221 2°42.801 261 14.9 257 10.5
2004-04-19 07:17:59 51°11.217 2°42.769 261.1 14.9 257 10.5
2004-04-19 07:18:04 51°11.212 2°42.737 261.3 14.9 258 10.5
2004-04-19 07:18:09 51°11.208 2°42.705 261.7 14.7 258 10.5
2004-04-19 07:18:14 51°11.204 2°42.675 261.7 14.2 257 10.4
2004-04-19 07:18:19 51°11.2 2°42.646 261.7 13.4 257 10.3
2004-04-19 07:18:24 51°11.196 2°42.618 261.5 12.8 257 10.4
2004-04-19 07:18:29 51°11.192 2°42.592 260.7 12.1 256 10.5
2004-04-19 07:18:34 51°11.187 2°42.568 259.5 11.5 255 10.6
2004-04-19 07:18:39 51°11.183 2°42.545 257.7 10.7 252 10.7
2004-04-19 07:18:44 51°11.178 2°42.524 255.3 10 250 10.7
2004-04-19 07:18:49 51°11.174 2°42.504 252.3 9.6 248 10.7
2004-04-19 07:18:54 51°11.169 2°42.486 250.4 9.3 248 10.7
2004-04-19 07:18:58 51°11.165 2°42.471 249.8 9.1 248 10.7
2004-04-19 07:19:04 51°11.16 2°42.449 250.2 8.7 250 10.7
2004-04-19 07:19:09 51°11.156 2°42.431 251.8 8.5 251 10.6
2004-04-19 07:19:14 51°11.153 2°42.414 254 8.4 253 10.7
2004-04-19 07:19:18 51°11.151 2°42.399 257.3 8.2 255 10.7
2004-04-19 07:19:24 51°11.148 2°42.379 259.9 8 259 10.6
2004-04-19 07:19:29 51°11.146 2°42.361 263.2 7.9 260 10.6
2004-04-19 07:19:34 51°11.144 2°42.344 264.3 7.8 260 10.6
2004-04-19 07:19:38 51°11.143 2°42.331 264.5 7.6 260 10.6
2004-04-19 07:19:44 51°11.141 2°42.312 264.2 7.2 260 10.6
2004-04-19 07:19:49 51°11.139 2°42.296 263.5 7 259 10.7
2004-04-19 07:19:54 51°11.137 2°42.282 262.4 6.8 257 10.6
2004-04-19 07:20:00 51°11.135 2°42.265 260.6 6.6 257 10.7
2004-04-19 07:20:04 51°11.133 2°42.255 258.5 6.3 254 10.6
2004-04-19 07:20:09 51°11.13 2°42.242 256.2 6 253 10.7
2004-04-19 07:20:14 51°11.128 2°42.23 254.2 5.8 251 10.6
2004-04-19 07:20:18 51°11.126 2°42.22 252.9 5.7 251 10.6
2004-04-19 07:20:24 51°11.122 2°42.207 251.3 5.3 248 10.5
2004-04-19 07:20:29 51°11.12 2°42.197 249.8 5.2 248 10.6
2004-04-19 07:20:34 51°11.117 2°42.186 248.7 5 247 10.6
2004-04-19 07:20:39 51°11.115 2°42.177 247.8 4.8 248 10.6
2004-04-19 07:20:44 51°11.112 2°42.167 247.5 4.7 247 10.6
2004-04-19 07:20:49 51°11.109 2°42.158 247.4 4.6 248 10.6
2004-04-19 07:20:54 51°11.107 2°42.149 247.9 4.5 247 10.8
2004-04-19 07:20:58 51°11.105 2°42.141 248.3 4.5 247 10.7
2004-04-19 07:21:04 51°11.103 2°42.131 248.4 4.3 248 10.7
2004-04-19 07:21:09 51°11.101 2°42.123 248.6 4 248 10.7
2004-04-19 07:21:14 51°11.099 2°42.115 248.6 3.7 249 10.6
2004-04-19 07:21:20 51°11.098 2°42.107 248.2 3.2 250 10.7
2004-04-19 07:21:24 51°11.097 2°42.102 248.9 2.6 250 10.7
2004-04-19 07:21:29 51°11.096 2°42.098 250.2 2.6 250 10.7
2004-04-19 07:21:34 51°11.095 2°42.094 251.2 1.8 253 10.6
2004-04-19 07:21:39 51°11.095 2°42.092 252.2 1.2 260 10.7
2004-04-19 07:21:44 51°11.095 2°42.09 252.9 0.7 257 10.7
2004-04-19 07:21:49 51°11.095 2°42.089 253.5 0.4 271 10.6
2004-04-19 07:21:54 51°11.095 2°42.089 255.3 0.3 286 10.7
2004-04-19 07:21:58 51°11.095 2°42.089 256.8 0.2 295 10.7
2004-04-19 07:22:04 51°11.095 2°42.088 258.9 0.3 282 10.7
2004-04-19 07:22:10 51°11.095 2°42.087 261.5 0.3 257 -999
2004-04-19 07:22:14 51°11.094 2°42.087 263.9 0.3 263 -999
2004-04-19 07:22:20 51°11.094 2°42.086 265.4 0.4 258 -999
2004-04-19 07:22:25 51°11.094 2°42.085 266.9 0.4 254 -999
2004-04-19 07:22:30 51°11.094 2°42.084 268.1 0.4 255 -999
2004-04-19 07:22:34 51°11.094 2°42.083 269.3 0.5 255 -999
2004-04-19 07:22:40 51°11.094 2°42.082 270 0.5 257 4.7
2004-04-19 07:22:44 51°11.094 2°42.081 270.8 0.5 262 -999
2004-04-19 07:22:49 51°11.093 2°42.08 271.4 0.5 266 10.7
2004-04-19 07:22:54 51°11.093 2°42.079 272.3 0.6 262 10.7
2004-04-19 07:22:59 51°11.093 2°42.078 273.1 0.6 264 10.7
2004-04-19 07:23:04 51°11.093 2°42.076 273.9 0.6 266 10.7
2004-04-19 07:23:08 51°11.093 2°42.075 274.4 0.6 270 10.8
2004-04-19 07:23:14 51°11.093 2°42.074 275.1 0.6 267 5
2004-04-19 07:23:18 51°11.093 2°42.073 275.7 0.7 270 10.6
2004-04-19 07:23:25 51°11.092 2°42.071 276.2 0.7 271 10.7
2004-04-19 07:23:29 51°11.092 2°42.069 276.8 0.7 268 10.7
2004-04-19 07:23:34 51°11.092 2°42.068 277.5 0.7 273 4.8
2004-04-19 07:23:38 51°11.092 2°42.067 278.1 0.7 269 10.7
2004-04-19 07:23:44 51°11.092 2°42.065 278.9 0.7 268 10.7
2004-04-19 07:23:49 51°11.092 2°42.063 279.7 0.7 269 10.6
2004-04-19 07:23:54 51°11.092 2°42.062 280.2 0.8 270 10.7
2004-04-19 07:23:59 51°11.092 2°42.06 280.8 0.8 269 10.7
2004-04-19 07:24:04 51°11.092 2°42.059 281.3 0.8 267 10.7
2004-04-19 07:24:09 51°11.092 2°42.057 282 0.8 271 10.7
2004-04-19 07:24:14 51°11.092 2°42.055 282.5 0.8 268 10.7
2004-04-19 07:24:18 51°11.092 2°42.054 283.1 0.8 270 10.7
2004-04-19 07:24:24 51°11.092 2°42.051 283.6 0.9 271 10.7
2004-04-19 07:24:29 51°11.092 2°42.049 283.9 0.9 273 10.7
2004-04-19 07:24:34 51°11.092 2°42.047 284.3 0.9 273 10.7
2004-04-19 07:24:39 51°11.092 2°42.045 284.8 0.9 276 10.7
2004-04-19 07:24:44 51°11.092 2°42.043 285.3 0.9 274 10.7
2004-04-19 07:24:48 51°11.092 2°42.042 285.9 0.9 277 10.7
2004-04-19 07:24:54 51°11.092 2°42.039 286.3 0.9 276 10.7
2004-04-19 07:24:59 51°11.092 2°42.037 286.7 0.9 277 10.6
2004-04-19 07:25:04 51°11.093 2°42.035 287.1 1 275 10.7
2004-04-19 07:25:09 51°11.093 2°42.033 287.6 1 278 10.7
2004-04-19 07:25:14 51°11.093 2°42.031 288 1 277 10.6
2004-04-19 07:25:18 51°11.093 2°42.029 288.3 1 279 10.6
2004-04-19 07:25:24 51°11.093 2°42.027 288.4 1 278 10.6
2004-04-19 07:25:29 51°11.094 2°42.024 288.7 1 278 10.7
2004-04-19 07:25:34 51°11.094 2°42.022 288.8 1 277 10.7
2004-04-19 07:25:39 51°11.094 2°42.02 288.8 1.1 278 10.6
2004-04-19 07:25:44 51°11.094 2°42.018 288.8 1.1 278 10.6
2004-04-19 07:25:49 51°11.094 2°42.015 288.8 1.1 279 10.6
2004-04-19 07:25:54 51°11.094 2°42.013 288.6 1.1 277 10.6
2004-04-19 07:25:58 51°11.094 2°42.011 288.4 1.1 279 10.6
2004-04-19 07:26:04 51°11.095 2°42.008 288.1 1.1 279 10.7
2004-04-19 07:26:09 51°11.095 2°42.006 287.9 1.1 279 10.6
2004-04-19 07:26:14 51°11.095 2°42.003 287.5 1.1 278 10.6
2004-04-19 07:26:20 51°11.096 2°42 287.3 1.1 279 10.6
2004-04-19 07:26:24 51°11.096 2°41.998 287.1 1.1 278 10.6
2004-04-19 07:26:29 51°11.096 2°41.996 286.8 1.2 278 10.7
2004-04-19 07:26:34 51°11.096 2°41.993 286.6 1.1 279 10.7
2004-04-19 07:26:38 51°11.097 2°41.991 286.2 1.1 278 10.6
2004-04-19 07:26:44 51°11.097 2°41.988 285.9 1.2 277 10.6
2004-04-19 07:26:48 51°11.097 2°41.986 285.4 1.2 276 10.7
2004-04-19 07:26:54 51°11.097 2°41.983 284.8 1.2 275 10.7
2004-04-19 07:26:59 51°11.097 2°41.981 284.3 1.2 275 10.6
2004-04-19 07:27:04 51°11.097 2°41.978 283.7 1.2 274 10.6
2004-04-19 07:27:09 51°11.098 2°41.976 282.9 1.2 274 10.6
2004-04-19 07:27:14 51°11.098 2°41.973 282.3 1.2 273 10.6
2004-04-19 07:27:20 51°11.098 2°41.97 281.6 1.2 274 10.6
2004-04-19 07:27:24 51°11.098 2°41.968 281.2 1.2 274 10.6
2004-04-19 07:27:29 51°11.098 2°41.965 280.7 1.2 275 10.6
2004-04-19 07:27:34 51°11.098 2°41.962 280.1 1.2 272 10.6
2004-04-19 07:27:39 51°11.098 2°41.96 279.5 1.2 274 10.6
2004-04-19 07:27:44 51°11.098 2°41.957 279.3 1.2 274 10.6
2004-04-19 07:27:49 51°11.098 2°41.954 278.8 1.2 273 10.6
2004-04-19 07:27:54 51°11.098 2°41.952 278.6 1.2 272 10.6
2004-04-19 07:28:00 51°11.098 2°41.948 278.3 1.2 274 10.7
2004-04-19 07:28:04 51°11.099 2°41.946 278 1.3 272 10.6
2004-04-19 07:28:09 51°11.099 2°41.943 277.8 1.2 273 10.6
2004-04-19 07:28:14 51°11.099 2°41.94 277.4 1.3 271 10.6
2004-04-19 07:28:18 51°11.099 2°41.938 277.1 1.2 273 10.6
2004-04-19 07:28:24 51°11.099 2°41.935 276.8 1.3 272 10.6
2004-04-19 07:28:29 51°11.099 2°41.932 276.5 1.2 270 10.6
2004-04-19 07:28:34 51°11.099 2°41.929 276.1 1.2 272 10.6
2004-04-19 07:28:39 51°11.099 2°41.927 275.7 1.2 271 10.6
2004-04-19 07:28:44 51°11.099 2°41.924 275 1.3 271 10.5
2004-04-19 07:28:49 51°11.099 2°41.921 274.7 1.2 273 10.5
2004-04-19 07:28:54 51°11.099 2°41.918 274.3 1.2 272 10.5
2004-04-19 07:28:59 51°11.099 2°41.916 274.1 1.2 273 10.6
2004-04-19 07:29:04 51°11.1 2°41.913 273.8 1.2 274 10.6
2004-04-19 07:29:09 51°11.1 2°41.91 273.7 1.3 273 10.6
2004-04-19 07:29:14 51°11.1 2°41.907 273.6 1.3 274 10.6
2004-04-19 07:29:19 51°11.1 2°41.904 273.5 1.3 274 10.6
2004-04-19 07:29:24 51°11.1 2°41.901 273.5 1.3 273 10.6
2004-04-19 07:29:29 51°11.1 2°41.899 273.4 1.3 273 10.6
2004-04-19 07:29:34 51°11.1 2°41.896 273.3 1.3 272 10.6
2004-04-19 07:29:40 51°11.1 2°41.892 273.1 1.3 273 10.6
2004-04-19 07:29:44 51°11.1 2°41.89 272.9 1.3 272 10.7
2004-04-19 07:29:49 51°11.1 2°41.887 272.7 1.3 272 10.6
2004-04-19 07:29:54 51°11.101 2°41.884 272.4 1.3 273 10.6
2004-04-19 07:29:59 51°11.101 2°41.881 272.2 1.3 272 10.6
2004-04-19 07:30:04 51°11.101 2°41.878 272.1 1.3 273 10.6
2004-04-19 07:30:09 51°11.101 2°41.875 271.9 1.3 271 10.5
2004-04-19 07:30:14 51°11.101 2°41.873 271.5 1.3 271 10.6
2004-04-19 07:30:20 51°11.101 2°41.869 271.4 1.3 272 10.6
2004-04-19 07:30:24 51°11.101 2°41.865 271.1 1.8 271 10.5
2004-04-19 07:30:29 51°11.101 2°41.861 270.6 2.2 268 10.6
2004-04-19 07:30:34 51°11.101 2°41.855 269.9 2.7 268 10.6
2004-04-19 07:30:38 51°11.1 2°41.849 268.5 3 266 10.5
2004-04-19 07:30:44 51°11.1 2°41.84 267.3 3.6 263 10.6
2004-04-19 07:30:49 51°11.099 2°41.831 265.5 3.9 262 10.6
2004-04-19 07:30:54 51°11.098 2°41.822 263.6 4.3 260 10.6
2004-04-19 07:30:58 51°11.097 2°41.812 261.7 5.6 258 10.5
2004-04-19 07:31:04 51°11.094 2°41.795 259.1 6.1 257 10.5
2004-04-19 07:31:09 51°11.091 2°41.778 256.4 7.8 253 10.5
2004-04-19 07:31:14 51°11.087 2°41.76 254.7 8.6 252 10.5
2004-04-19 07:31:18 51°11.083 2°41.744 254.3 9.3 251 10.5
2004-04-19 07:31:24 51°11.078 2°41.719 254.5 10.3 251 10.5
2004-04-19 07:31:29 51°11.073 2°41.696 254.6 10.8 252 10.4
2004-04-19 07:31:34 51°11.068 2°41.673 254.8 11.1 252 10.5
2004-04-19 07:31:38 51°11.064 2°41.653 254.9 11.4 251 10.5
2004-04-19 07:31:44 51°11.058 2°41.623 255 12.2 252 10.5
2004-04-19 07:31:48 51°11.053 2°41.602 255.1 12.5 252 10.5
2004-04-19 07:31:54 51°11.047 2°41.57 255.1 12.8 252 10.4
2004-04-19 07:31:58 51°11.042 2°41.548 254.9 13.1 252 10.5
2004-04-19 07:32:04 51°11.035 2°41.514 254.9 13.6 251 10.4
2004-04-19 07:32:09 51°11.029 2°41.485 254.8 13.8 251 10.5
2004-04-19 07:32:14 51°11.023 2°41.456 254.8 13.9 252 10.5
2004-04-19 07:32:19 51°11.017 2°41.426 255 14.1 252 10.5
2004-04-19 07:32:24 51°11.011 2°41.396 255.4 14.3 253 10.4
2004-04-19 07:32:29 51°11.005 2°41.366 256.4 14.3 254 10.5
2004-04-19 07:32:34 51°11 2°41.335 257.5 14.4 254 10.5
2004-04-19 07:32:40 51°10.994 2°41.298 258.1 14.4 255 10.6
2004-04-19 07:32:44 51°10.989 2°41.274 258.4 14.5 255 10.6
2004-04-19 07:32:49 51°10.985 2°41.243 258.9 14.5 256 10.6
2004-04-19 07:32:54 51°10.979 2°41.211 259.1 14.6 255 10.6
2004-04-19 07:33:00 51°10.973 2°41.174 259.1 14.6 255 10.7
2004-04-19 07:33:04 51°10.969 2°41.149 258.8 14.6 254 10.7
2004-04-19 07:33:09 51°10.963 2°41.118 258.6 14.6 255 10.7
2004-04-19 07:33:14 51°10.958 2°41.087 258.9 14.7 255 10.8
2004-04-19 07:33:18 51°10.954 2°41.062 259.2 14.7 255 10.8
2004-04-19 07:33:24 51°10.948 2°41.025 259.4 14.7 256 10.9
2004-04-19 07:33:29 51°10.943 2°40.993 259.7 14.7 256 10.9
2004-04-19 07:33:34 51°10.938 2°40.962 259.7 14.7 256 10.9
2004-04-19 07:33:39 51°10.933 2°40.931 259.6 14.7 255 10.9
2004-04-19 07:33:44 51°10.928 2°40.899 259.5 14.7 255 10.9
2004-04-19 07:33:49 51°10.922 2°40.868 259.2 14.7 255 11
2004-04-19 07:33:54 51°10.917 2°40.836 258.9 14.7 255 11
2004-04-19 07:34:00 51°10.911 2°40.799 258.7 14.8 255 11.1
2004-04-19 07:34:04 51°10.906 2°40.774 258.6 14.7 255 11.2
2004-04-19 07:34:09 51°10.901 2°40.742 258.6 14.8 255 11.1
2004-04-19 07:34:14 51°10.896 2°40.711 258.9 14.8 255 11.2
2004-04-19 07:34:18 51°10.891 2°40.686 259.2 14.8 255 11.3
2004-04-19 07:34:24 51°10.885 2°40.648 259.2 14.8 255 11.4
2004-04-19 07:34:30 51°10.878 2°40.61 259.1 14.8 255 11.4
2004-04-19 07:34:34 51°10.874 2°40.585 259 14.8 255 11.4
2004-04-19 07:34:39 51°10.869 2°40.553 259 14.8 255 11.5
2004-04-19 07:34:44 51°10.863 2°40.521 259 14.8 255 11.5
2004-04-19 07:34:49 51°10.858 2°40.49 259.2 14.8 255 11.5
2004-04-19 07:34:54 51°10.853 2°40.458 259.4 14.8 255 11.7
2004-04-19 07:35:00 51°10.847 2°40.42 259.6 14.8 256 11.7
2004-04-19 07:35:04 51°10.842 2°40.395 259.7 14.8 255 11.7
2004-04-19 07:35:08 51°10.838 2°40.37 259.3 14.8 255 11.8
2004-04-19 07:35:14 51°10.832 2°40.332 258.9 14.8 254 11.8
2004-04-19 07:35:18 51°10.827 2°40.307 258.6 14.7 254 11.8
2004-04-19 07:35:25 51°10.819 2°40.263 258.4 14.8 255 12
2004-04-19 07:35:29 51°10.815 2°40.238 258.9 14.8 255 12
2004-04-19 07:35:34 51°10.81 2°40.206 259.2 14.7 255 12
2004-04-19 07:35:40 51°10.804 2°40.168 259.6 14.7 255 12.1
2004-04-19 07:35:44 51°10.799 2°40.143 259.7 14.7 255 12.2
2004-04-19 07:35:48 51°10.795 2°40.118 259.4 14.7 255 12.2
2004-04-19 07:35:54 51°10.788 2°40.08 259.1 14.7 255 12.2
2004-04-19 07:35:58 51°10.784 2°40.055 258.8 14.7 255 12.3
2004-04-19 07:36:04 51°10.778 2°40.017 259 14.7 255 12.3
2004-04-19 07:36:09 51°10.773 2°39.986 259.3 14.7 255 12.4
2004-04-19 07:36:14 51°10.767 2°39.954 259.6 14.7 255 12.6
2004-04-19 07:36:19 51°10.762 2°39.923 259.7 14.7 255 12.6
2004-04-19 07:36:24 51°10.757 2°39.891 259.7 14.7 255 12.6
2004-04-19 07:36:29 51°10.752 2°39.86 259.7 14.7 255 12.7
2004-04-19 07:36:34 51°10.747 2°39.829 259.7 14.7 255 12.7
2004-04-19 07:36:38 51°10.743 2°39.804 259.2 14.7 255 12.7
2004-04-19 07:36:44 51°10.736 2°39.766 259.3 14.7 255 12.7
2004-04-19 07:36:49 51°10.731 2°39.735 259.4 14.7 255 12.7
2004-04-19 07:36:54 51°10.725 2°39.704 259.1 14.7 254 12.7
2004-04-19 07:36:59 51°10.719 2°39.673 257.4 14.7 252 12.9
2004-04-19 07:37:04 51°10.712 2°39.642 256.3 14.7 251 12.9
2004-04-19 07:37:09 51°10.705 2°39.612 255.7 14.7 251 12.9
2004-04-19 07:37:14 51°10.699 2°39.581 255.3 14.7 251 13.1
2004-04-19 07:37:20 51°10.691 2°39.544 255.2 14.7 251 13.1
2004-04-19 07:37:24 51°10.686 2°39.52 255 14.7 251 13.1
2004-04-19 07:37:29 51°10.679 2°39.489 254.7 14.7 250 13.2
2004-04-19 07:37:34 51°10.672 2°39.459 254.5 14.7 250 13.2
2004-04-19 07:37:40 51°10.664 2°39.422 254.4 14.7 251 13.4
2004-04-19 07:37:44 51°10.659 2°39.398 254.7 14.7 251 13.4
2004-04-19 07:37:49 51°10.652 2°39.367 255.2 14.7 251 13.5
2004-04-19 07:37:54 51°10.646 2°39.336 255.3 14.7 251 13.6
2004-04-19 07:37:58 51°10.64 2°39.312 255 14.7 251 13.6
2004-04-19 07:38:04 51°10.632 2°39.275 254.7 14.7 251 13.7
2004-04-19 07:38:09 51°10.626 2°39.244 254.8 14.7 251 14
2004-04-19 07:38:14 51°10.619 2°39.213 255.2 14.7 251 13.9
2004-04-19 07:38:19 51°10.612 2°39.182 255.3 14.7 251 14
2004-04-19 07:38:24 51°10.606 2°39.152 255.2 14.7 251 14
2004-04-19 07:38:29 51°10.599 2°39.121 254.9 14.7 251 14.1
2004-04-19 07:38:34 51°10.592 2°39.09 255.1 14.7 251 14.1
2004-04-19 07:38:40 51°10.584 2°39.053 255.3 14.7 251 14.3
2004-04-19 07:38:44 51°10.579 2°39.028 255.3 14.7 251 14.3
2004-04-19 07:38:49 51°10.572 2°38.998 255.3 14.7 251 14.4
2004-04-19 07:38:54 51°10.566 2°38.967 255.3 14.7 251 14.4
2004-04-19 07:38:58 51°10.56 2°38.942 255.3 14.8 251 14.5
2004-04-19 07:39:04 51°10.553 2°38.905 255.5 14.8 251 14.5
2004-04-19 07:39:09 51°10.546 2°38.874 255.5 14.8 251 14.5
2004-04-19 07:39:14 51°10.539 2°38.843 255.2 14.8 251 14.6
2004-04-19 07:39:19 51°10.532 2°38.813 254.8 14.8 250 14.6
2004-04-19 07:39:24 51°10.525 2°38.782 254.8 14.8 251 14.6
2004-04-19 07:39:29 51°10.519 2°38.751 254.9 14.8 251 14.7
2004-04-19 07:39:34 51°10.512 2°38.72 255 14.8 251 14.8
2004-04-19 07:39:40 51°10.504 2°38.683 255.4 14.8 251 14.9
2004-04-19 07:39:44 51°10.499 2°38.658 255.4 14.8 251 14.9
2004-04-19 07:39:49 51°10.492 2°38.627 255.2 14.8 251 15
2004-04-19 07:39:54 51°10.485 2°38.596 255 14.8 251 15
2004-04-19 07:40:00 51°10.477 2°38.559 254.9 14.8 250 15.1
2004-04-19 07:40:04 51°10.472 2°38.535 254.8 14.8 251 15.1
2004-04-19 07:40:09 51°10.465 2°38.504 254.8 14.8 251 15.3
2004-04-19 07:40:14 51°10.458 2°38.473 255.1 14.8 251 15.3
2004-04-19 07:40:18 51°10.453 2°38.448 255.4 14.8 251 15.4
2004-04-19 07:40:24 51°10.445 2°38.411 255.7 14.8 251 15.4
2004-04-19 07:40:29 51°10.439 2°38.38 255.7 14.8 252 15.4
2004-04-19 07:40:34 51°10.432 2°38.349 255.8 14.8 251 15.4
2004-04-19 07:40:40 51°10.424 2°38.312 255.5 14.8 251 15.5
2004-04-19 07:40:44 51°10.419 2°38.287 255.4 14.8 251 15.6
2004-04-19 07:40:49 51°10.412 2°38.256 255.1 14.8 251 15.6
2004-04-19 07:40:54 51°10.405 2°38.225 254.8 14.8 251 15.7
2004-04-19 07:40:58 51°10.4 2°38.2 255.2 14.9 251 15.8
2004-04-19 07:41:04 51°10.392 2°38.163 255.5 14.9 251 15.8
2004-04-19 07:41:09 51°10.386 2°38.132 255.6 14.8 251 15.8
2004-04-19 07:41:14 51°10.379 2°38.101 255.6 14.8 251 15.9
2004-04-19 07:41:19 51°10.372 2°38.07 255.3 14.8 251 15.8
2004-04-19 07:41:24 51°10.365 2°38.039 255.1 14.8 251 16
2004-04-19 07:41:29 51°10.359 2°38.008 255.1 14.8 251 15.9
2004-04-19 07:41:34 51°10.352 2°37.977 255 14.9 251 16
2004-04-19 07:41:38 51°10.347 2°37.952 255.1 14.9 251 15.8
2004-04-19 07:41:44 51°10.339 2°37.915 255.4 14.9 251 15.9
2004-04-19 07:41:50 51°10.331 2°37.877 255.5 14.9 251 16.1
2004-04-19 07:41:54 51°10.325 2°37.853 255.5 14.8 251 16.1
2004-04-19 07:41:59 51°10.319 2°37.822 255.3 14.9 251 16.1
2004-04-19 07:42:04 51°10.312 2°37.791 255 14.8 251 16.2
2004-04-19 07:42:08 51°10.306 2°37.766 254.9 14.9 251 16.2
2004-04-19 07:42:14 51°10.298 2°37.728 254.8 14.9 251 16.1
2004-04-19 07:42:19 51°10.292 2°37.697 255.1 14.9 251 16.3
2004-04-19 07:42:24 51°10.285 2°37.666 255.1 14.9 251 16.2
2004-04-19 07:42:29 51°10.278 2°37.635 255.2 14.9 251 16.2
2004-04-19 07:42:34 51°10.272 2°37.604 255.3 14.9 251 16.2
2004-04-19 07:42:38 51°10.266 2°37.579 255.3 14.9 251 16.2
2004-04-19 07:42:44 51°10.258 2°37.542 255.3 15 251 16.2
2004-04-19 07:42:49 51°10.251 2°37.51 255.3 14.9 251 16.3
2004-04-19 07:42:54 51°10.245 2°37.479 255.3 14.9 251 16.4
2004-04-19 07:42:58 51°10.239 2°37.454 255.3 14.9 251 16.3
2004-04-19 07:43:04 51°10.231 2°37.417 255.2 14.9 251 16.2
2004-04-19 07:43:09 51°10.224 2°37.386 255.2 14.9 251 16.2
2004-04-19 07:43:14 51°10.217 2°37.355 255.1 14.9 251 16.3
2004-04-19 07:43:20 51°10.209 2°37.317 255 14.9 251 16.3
2004-04-19 07:43:24 51°10.204 2°37.293 254.9 14.9 251 16.4
2004-04-19 07:43:28 51°10.199 2°37.268 255.5 14.9 252 16.4
2004-04-19 07:43:34 51°10.191 2°37.23 256.5 14.9 253 16.4
2004-04-19 07:43:39 51°10.185 2°37.198 257.2 14.9 253 16.4
2004-04-19 07:43:44 51°10.179 2°37.167 257.6 14.9 253 16.3
2004-04-19 07:43:48 51°10.175 2°37.142 257.9 14.9 254 16.3
2004-04-19 07:43:54 51°10.168 2°37.104 258.3 14.9 254 16
2004-04-19 07:43:59 51°10.162 2°37.072 258.6 14.9 254 16
2004-04-19 07:44:04 51°10.157 2°37.041 258.8 14.9 254 15.9
2004-04-19 07:44:09 51°10.151 2°37.009 258.9 14.8 254 16.2
2004-04-19 07:44:14 51°10.146 2°36.978 258.6 14.9 254 16.2
2004-04-19 07:44:20 51°10.139 2°36.94 258.4 14.9 254 16.2
2004-04-19 07:44:24 51°10.134 2°36.915 258.3 14.9 254 16.2
2004-04-19 07:44:29 51°10.128 2°36.884 258.4 14.9 254 16.2
2004-04-19 07:44:34 51°10.123 2°36.852 258.6 14.9 254 16.2
2004-04-19 07:44:40 51°10.116 2°36.815 258.9 14.9 254 16.2
2004-04-19 07:44:44 51°10.112 2°36.789 258.7 14.8 254 16.3
2004-04-19 07:44:49 51°10.106 2°36.758 258.5 14.9 254 16.3
2004-04-19 07:44:54 51°10.1 2°36.727 258.4 14.8 254 16.1
2004-04-19 07:44:58 51°10.095 2°36.702 258.3 14.8 254 16.3
2004-04-19 07:45:04 51°10.089 2°36.664 258.3 14.8 254 16.2
2004-04-19 07:45:09 51°10.083 2°36.633 258.5 14.8 254 16.4
2004-04-19 07:45:14 51°10.077 2°36.601 258.6 14.8 254 16.2
2004-04-19 07:45:18 51°10.073 2°36.576 258.6 14.8 254 16.3
2004-04-19 07:45:24 51°10.066 2°36.539 258.7 14.8 254 16.3
2004-04-19 07:45:28 51°10.061 2°36.514 258.4 14.8 254 16.4
2004-04-19 07:45:34 51°10.055 2°36.476 258.2 14.8 254 16.3
2004-04-19 07:45:39 51°10.05 2°36.444 259.1 14.8 255 16.4
2004-04-19 07:45:44 51°10.047 2°36.412 262.3 14.7 260 16.4
2004-04-19 07:45:48 51°10.044 2°36.386 265.2 14.7 263 16.4
2004-04-19 07:45:54 51°10.042 2°36.348 267.7 14.7 264 16.4
2004-04-19 07:45:59 51°10.041 2°36.315 270.5 14.7 267 16.5
2004-04-19 07:46:04 51°10.041 2°36.283 273.4 14.7 269 16.4
2004-04-19 07:46:09 51°10.041 2°36.251 275.5 14.7 271 16.3
2004-04-19 07:46:14 51°10.042 2°36.218 277.4 14.6 273 16.2
2004-04-19 07:46:18 51°10.044 2°36.193 280.5 14.5 277 16.1
2004-04-19 07:46:24 51°10.048 2°36.155 284.1 14.5 279 16.1
2004-04-19 07:46:29 51°10.053 2°36.124 287.2 14.4 283 16
2004-04-19 07:46:34 51°10.059 2°36.094 290.9 14.3 287 15.9
2004-04-19 07:46:40 51°10.068 2°36.06 295.9 14.2 292 15.6
2004-04-19 07:46:44 51°10.075 2°36.037 300.3 14.2 293 15.3
2004-04-19 07:46:49 51°10.085 2°36.01 303.5 14.1 299 15.1
2004-04-19 07:46:54 51°10.095 2°35.984 307.6 14 303 14.7
2004-04-19 07:46:58 51°10.105 2°35.964 312 13.9 306 13.9
2004-04-19 07:47:04 51°10.12 2°35.938 317.1 13.8 312 13.5
2004-04-19 07:47:08 51°10.131 2°35.921 321.5 13.6 317 12.5
2004-04-19 07:47:14 51°10.149 2°35.898 325.8 13.5 320 11.8
2004-04-19 07:47:19 51°10.164 2°35.882 330.2 13.3 326 11.1
2004-04-19 07:47:24 51°10.18 2°35.867 333.8 13.1 331 10.5
2004-04-19 07:47:29 51°10.196 2°35.855 338.9 13 335 9.8
2004-04-19 07:47:34 51°10.213 2°35.845 344 12.9 338 9.4
2004-04-19 07:47:40 51°10.233 2°35.835 348.3 12.7 343 9.2
2004-04-19 07:47:44 51°10.246 2°35.829 351.3 12.6 345 8.9
2004-04-19 07:47:49 51°10.263 2°35.822 353.9 12.6 346 8.9
2004-04-19 07:47:54 51°10.28 2°35.817 355.2 12.6 348 8.7
2004-04-19 07:48:00 51°10.301 2°35.811 356.4 12.6 349 9.1
2004-04-19 07:48:04 51°10.315 2°35.806 357.5 12.7 350 9.3
2004-04-19 07:48:08 51°10.329 2°35.804 359.3 12.7 354 9.1
2004-04-19 07:48:14 51°10.35 2°35.801 1.9 12.9 355 9.3
2004-04-19 07:48:19 51°10.368 2°35.8 3.9 12.9 358 9.5
2004-04-19 07:48:24 51°10.386 2°35.799 5.9 12.9 359 9.5
2004-04-19 07:48:29 51°10.404 2°35.799 7.5 12.9   9.4
2004-04-19 07:48:34 51°10.422 2°35.799 8.2 12.9   9.4
2004-04-19 07:48:40 51°10.443 2°35.8 8.6 12.9 1 9.4
2004-04-19 07:48:44 51°10.457 2°35.801 9 12.8 4 9.1
2004-04-19 07:48:49 51°10.475 2°35.804 11.7 12.8 7 9.1
2004-04-19 07:48:54 51°10.492 2°35.81 14.8 12.7 11 9
2004-04-19 07:48:59 51°10.51 2°35.816 17.9 12.7 12 8.9
2004-04-19 07:49:04 51°10.526 2°35.823 20.3 12.6 15 9
2004-04-19 07:49:08 51°10.54 2°35.829 22.8 12.6 17 9
2004-04-19 07:49:14 51°10.56 2°35.839 23.4 12.6 16 8.8
2004-04-19 07:49:18 51°10.573 2°35.846 24.3 12.5 18 9.1
2004-04-19 07:49:24 51°10.593 2°35.856 24.6 12.6 18 9.1
2004-04-19 07:49:29 51°10.609 2°35.866 25.5 12.6 18 9
2004-04-19 07:49:34 51°10.625 2°35.877 28.3 12.6 23 9.2
2004-04-19 07:49:40 51°10.644 2°35.892 31 12.6 26 9
2004-04-19 07:49:44 51°10.657 2°35.902 33 12.6 28 9
2004-04-19 07:49:49 51°10.672 2°35.917 34.7 12.6 30 9.3
2004-04-19 07:49:54 51°10.687 2°35.93 35.7 12.6 30 9.1
2004-04-19 07:49:59 51°10.702 2°35.945 36.2 12.6 31 9
2004-04-19 07:50:05 51°10.72 2°35.961 36.7 12.6 29 9.1
2004-04-19 07:50:09 51°10.732 2°35.972 36 12.6 29 9.2
2004-04-19 07:50:14 51°10.748 2°35.985 34.7 12.6 28 9.4
2004-04-19 07:50:18 51°10.76 2°35.995 34.2 12.7 26 9.5
2004-04-19 07:50:24 51°10.779 2°36.01 33.4 12.7 27 9.5
2004-04-19 07:50:29 51°10.795 2°36.023 33.5 12.7 26 9.4
2004-04-19 07:50:34 51°10.81 2°36.036 33.2 12.7 28 9.4
2004-04-19 07:50:39 51°10.826 2°36.048 33.6 12.7 27 9.4
2004-04-19 07:50:44 51°10.841 2°36.062 34.1 12.7 27 9.5
2004-04-19 07:50:49 51°10.857 2°36.074 33.8 12.7 27 9.5
2004-04-19 07:50:54 51°10.873 2°36.088 34.2 12.8 28 9.4
2004-04-19 07:50:58 51°10.885 2°36.098 34.3 12.8 27 9.8
2004-04-19 07:51:04 51°10.904 2°36.114 34.4 12.7 27 9.4
2004-04-19 07:51:08 51°10.917 2°36.124 34.1 12.8 27 9.6
2004-04-19 07:51:14 51°10.935 2°36.139 33.9 12.8 28 9.7
2004-04-19 07:51:18 51°10.948 2°36.149 33.7 12.7 26 9.5
2004-04-19 07:51:24 51°10.967 2°36.165 33.6 12.7 27 9.5
2004-04-19 07:51:29 51°10.983 2°36.177 33.3 12.7 26 9.7
2004-04-19 07:51:34 51°10.998 2°36.19 34 12.7 28 9.6
2004-04-19 07:51:40 51°11.017 2°36.206 33.4 12.7 27 9.8
2004-04-19 07:51:44 51°11.029 2°36.216 33.8 12.7 27 9.8
2004-04-19 07:51:49 51°11.045 2°36.229 34.1 12.7 27 9.7
2004-04-19 07:51:54 51°11.061 2°36.242 34.2 12.7 29 9.5
2004-04-19 07:52:00 51°11.08 2°36.257 33.5 12.7 27 9.6
2004-04-19 07:52:04 51°11.092 2°36.267 34.1 12.7 26 9.8
2004-04-19 07:52:08 51°11.105 2°36.278 34 12.7 27 9.9
2004-04-19 07:52:14 51°11.124 2°36.293 33.6 12.7 26 9.7
2004-04-19 07:52:20 51°11.142 2°36.308 33.3 12.8 27 9.6
2004-04-19 07:52:24 51°11.155 2°36.318 33.5 12.7 26 9.9
2004-04-19 07:52:29 51°11.171 2°36.33 33.1 12.7 26 9.9
2004-04-19 07:52:34 51°11.187 2°36.343 33.4 12.8 27 9.7
2004-04-19 07:52:39 51°11.202 2°36.355 33.2 12.7 26 9.8
2004-04-19 07:52:44 51°11.218 2°36.368 33.4 12.7 27 9.9
2004-04-19 07:52:49 51°11.234 2°36.381 33.6 12.7 26 9.7
2004-04-19 07:52:54 51°11.249 2°36.393 33.3 12.7 27 9.6
2004-04-19 07:53:00 51°11.269 2°36.408 33.8 12.7 27 9.9
2004-04-19 07:53:04 51°11.281 2°36.418 33.4 12.8 26 9.8
2004-04-19 07:53:09 51°11.297 2°36.43 33.4 12.7 25 9.8
2004-04-19 07:53:14 51°11.313 2°36.443 32.8 12.7 27 9.5
2004-04-19 07:53:19 51°11.329 2°36.455 33.1 12.7 25 9.9
2004-04-19 07:53:24 51°11.344 2°36.468 33.3 12.8 27 9.6
2004-04-19 07:53:29 51°11.361 2°36.48 33.3 12.8 25 9.8
2004-04-19 07:53:34 51°11.376 2°36.493 33.6 12.7 28 9.6
2004-04-19 07:53:39 51°11.392 2°36.505 33.6 12.7 26 9.8
2004-04-19 07:53:44 51°11.408 2°36.518 33.4 12.8 26 9.8
2004-04-19 07:53:49 51°11.424 2°36.53 33.4 12.7 27 9.7
2004-04-19 07:53:54 51°11.439 2°36.543 33.3 12.7 27 9.8
2004-04-19 07:53:58 51°11.452 2°36.553 33.5 12.7 26 9.7
2004-04-19 07:54:04 51°11.471 2°36.569 33.6 12.8 27 9.8
2004-04-19 07:54:09 51°11.487 2°36.581 33.4 12.8 25 9.6
2004-04-19 07:54:14 51°11.502 2°36.593 33.1 12.7 27 9.8
2004-04-19 07:54:18 51°11.515 2°36.603 33.3 12.7 26 9.7
2004-04-19 07:54:24 51°11.534 2°36.618 33.3 12.7 27 9.8
2004-04-19 07:54:29 51°11.55 2°36.63 33.5 12.7 27 9.6
2004-04-19 07:54:34 51°11.566 2°36.643 33.5 12.7 26 9.6
2004-04-19 07:54:39 51°11.581 2°36.656 33.1 12.7 27 9.7
2004-04-19 07:54:44 51°11.598 2°36.668 33 12.8 26 9.8
2004-04-19 07:54:49 51°11.613 2°36.681 33.3 12.8 28 9.7
2004-04-19 07:54:54 51°11.629 2°36.695 34.4 12.8 29 9.7
2004-04-19 07:54:58 51°11.64 2°36.707 36.6 12.7 32 9.7
2004-04-19 07:55:04 51°11.658 2°36.725 38.4 12.7 33 9.6
2004-04-19 07:55:09 51°11.672 2°36.741 39.9 12.6 35 9.7
2004-04-19 07:55:14 51°11.686 2°36.758 40.7 12.6 37 9.6
2004-04-19 07:55:20 51°11.703 2°36.777 42.1 12.6 37 9.7
2004-04-19 07:55:24 51°11.714 2°36.791 42.3 12.7 37 9.7
2004-04-19 07:55:29 51°11.729 2°36.808 42.5 12.6 37 9.5
2004-04-19 07:55:34 51°11.742 2°36.824 42.8 12.6 37 9.7
2004-04-19 07:55:40 51°11.76 2°36.844 42.6 12.7 36 9.5
2004-04-19 07:55:44 51°11.771 2°36.856 40.9 12.7 36 9.5
2004-04-19 07:55:49 51°11.785 2°36.873 41.5 12.7 36 9.5
2004-04-19 07:55:54 51°11.8 2°36.889 41.3 12.7 35 9.6
2004-04-19 07:55:59 51°11.814 2°36.905 41.6 12.7 37 9.7
2004-04-19 07:56:04 51°11.829 2°36.921 40.8 12.7 35 9.6
2004-04-19 07:56:09 51°11.844 2°36.937 40.4 12.7 34 9.6
2004-04-19 07:56:14 51°11.858 2°36.953 40.6 12.7 34 9.6
2004-04-19 07:56:20 51°11.875 2°36.972 40.5 12.7 34 9.7
2004-04-19 07:56:24 51°11.887 2°36.984 39.8 12.7 35 9.6
2004-04-19 07:56:29 51°11.902 2°37 40.4 12.7 35 9.7
2004-04-19 07:56:34 51°11.916 2°37.016 40.6 12.7 35 9.3
2004-04-19 07:56:39 51°11.93 2°37.033 41.3 12.7 36 9.6
2004-04-19 07:56:44 51°11.945 2°37.049 41.9 12.7 36 9.8
2004-04-19 07:56:49 51°11.959 2°37.065 41.4 12.7 35 9.7
2004-04-19 07:56:54 51°11.974 2°37.081 40.4 12.7 34 9.5
2004-04-19 07:57:00 51°11.991 2°37.1 41 12.7 36 9.9
2004-04-19 07:57:04 51°12.003 2°37.112 40.4 12.7 35 9.8
2004-04-19 07:57:09 51°12.017 2°37.128 40.6 12.7 33 9.7
2004-04-19 07:57:14 51°12.032 2°37.144 39.3 12.7 33 9.8
2004-04-19 07:57:19 51°12.047 2°37.16 40.3 12.7 35 9.6
2004-04-19 07:57:24 51°12.061 2°37.176 40.5 12.7 36 9.7
2004-04-19 07:57:29 51°12.075 2°37.192 41.3 12.7 35 10
2004-04-19 07:57:34 51°12.09 2°37.208 40.9 12.7 35 9.8
2004-04-19 07:57:40 51°12.107 2°37.227 40.7 12.7 35 9.9
2004-04-19 07:57:44 51°12.119 2°37.24 40.6 12.7 34 10
2004-04-19 07:57:49 51°12.133 2°37.256 40.7 12.7 35 9.9
2004-04-19 07:57:54 51°12.148 2°37.271 40.1 12.7 34 10
2004-04-19 07:58:00 51°12.165 2°37.29 40.1 12.7 35 9.8
2004-04-19 07:58:04 51°12.177 2°37.303 40.3 12.7 35 10.1
2004-04-19 07:58:10 51°12.194 2°37.322 40.4 12.7 33 10
2004-04-19 07:58:14 51°12.206 2°37.335 40 12.7 35 9.7
2004-04-19 07:58:18 51°12.217 2°37.347 40.1 12.7 34 10
2004-04-19 07:58:24 51°12.235 2°37.366 39.8 12.7 34 10.1
2004-04-19 07:58:29 51°12.25 2°37.381 39.8 12.7 33 10.1
2004-04-19 07:58:34 51°12.264 2°37.397 39.3 12.6 34 10.1
2004-04-19 07:58:38 51°12.276 2°37.409 39.9 12.7 34 10.1
2004-04-19 07:58:44 51°12.293 2°37.428 39.9 12.5 36 10.4
2004-04-19 07:58:49 51°12.307 2°37.445 40.5 12.6 36 10.1
2004-04-19 07:58:54 51°12.322 2°37.461 41.2 12.7 36 10.4